sensor_id;sensor_type;location;lat;lon;timestamp;P1;durP1;ratioP1;P2;durP2;ratioP2
33160;SDS011;19522;45.656;11.302;2023-02-28T00:01:04;13.32;;;8.57;;
33160;SDS011;19522;45.656;11.302;2023-02-28T00:03:30;12.30;;;8.63;;
33160;SDS011;19522;45.656;11.302;2023-02-28T00:05:55;14.77;;;9.30;;
33160;SDS011;19522;45.656;11.302;2023-02-28T00:08:21;11.95;;;8.98;;
33160;SDS011;19522;45.656;11.302;2023-02-28T00:10:46;13.73;;;9.05;;
33160;SDS011;19522;45.656;11.302;2023-02-28T00:13:12;13.65;;;8.52;;
33160;SDS011;19522;45.656;11.302;2023-02-28T00:15:38;12.10;;;9.13;;
33160;SDS011;19522;45.656;11.302;2023-02-28T00:18:03;22.05;;;13.38;;
33160;SDS011;19522;45.656;11.302;2023-02-28T00:20:29;22.23;;;13.90;;
33160;SDS011;19522;45.656;11.302;2023-02-28T00:22:55;15.88;;;9.93;;
33160;SDS011;19522;45.656;11.302;2023-02-28T00:25:21;12.25;;;9.30;;
33160;SDS011;19522;45.656;11.302;2023-02-28T00:27:48;14.15;;;9.25;;
33160;SDS011;19522;45.656;11.302;2023-02-28T00:30:17;12.88;;;8.82;;
33160;SDS011;19522;45.656;11.302;2023-02-28T00:32:46;14.55;;;9.00;;
33160;SDS011;19522;45.656;11.302;2023-02-28T00:35:12;16.35;;;9.35;;
33160;SDS011;19522;45.656;11.302;2023-02-28T00:37:38;14.80;;;9.57;;
33160;SDS011;19522;45.656;11.302;2023-02-28T00:40:04;9.32;;;6.85;;
33160;SDS011;19522;45.656;11.302;2023-02-28T00:42:31;19.15;;;11.52;;
33160;SDS011;19522;45.656;11.302;2023-02-28T00:44:57;10.88;;;8.15;;
33160;SDS011;19522;45.656;11.302;2023-02-28T00:47:23;11.07;;;7.13;;
33160;SDS011;19522;45.656;11.302;2023-02-28T00:49:48;11.77;;;7.75;;
33160;SDS011;19522;45.656;11.302;2023-02-28T00:52:14;11.93;;;7.32;;
33160;SDS011;19522;45.656;11.302;2023-02-28T00:54:39;14.15;;;7.93;;
33160;SDS011;19522;45.656;11.302;2023-02-28T00:57:05;19.75;;;11.05;;
33160;SDS011;19522;45.656;11.302;2023-02-28T00:59:30;12.40;;;8.57;;
33160;SDS011;19522;45.656;11.302;2023-02-28T01:01:56;14.45;;;9.15;;
33160;SDS011;19522;45.656;11.302;2023-02-28T01:04:21;12.63;;;8.13;;
33160;SDS011;19522;45.656;11.302;2023-02-28T01:06:47;13.27;;;8.80;;
33160;SDS011;19522;45.656;11.302;2023-02-28T01:09:12;13.75;;;8.65;;
33160;SDS011;19522;45.656;11.302;2023-02-28T01:11:38;12.70;;;8.40;;
33160;SDS011;19522;45.656;11.302;2023-02-28T01:14:06;14.57;;;9.25;;
33160;SDS011;19522;45.656;11.302;2023-02-28T01:16:33;14.90;;;9.40;;
33160;SDS011;19522;45.656;11.302;2023-02-28T01:18:59;12.38;;;8.43;;
33160;SDS011;19522;45.656;11.302;2023-02-28T01:21:24;11.00;;;7.32;;
33160;SDS011;19522;45.656;11.302;2023-02-28T01:23:50;12.80;;;8.30;;
33160;SDS011;19522;45.656;11.302;2023-02-28T01:26:20;10.57;;;7.07;;
33160;SDS011;19522;45.656;11.302;2023-02-28T01:28:47;9.30;;;7.03;;
33160;SDS011;19522;45.656;11.302;2023-02-28T01:31:13;10.15;;;6.78;;
33160;SDS011;19522;45.656;11.302;2023-02-28T01:33:38;10.20;;;7.38;;
33160;SDS011;19522;45.656;11.302;2023-02-28T01:38:31;13.02;;;7.78;;
33160;SDS011;19522;45.656;11.302;2023-02-28T01:40:58;11.63;;;7.63;;
33160;SDS011;19522;45.656;11.302;2023-02-28T01:43:28;9.95;;;7.22;;
33160;SDS011;19522;45.656;11.302;2023-02-28T01:46:01;9.77;;;7.47;;
33160;SDS011;19522;45.656;11.302;2023-02-28T01:48:27;9.45;;;7.18;;
33160;SDS011;19522;45.656;11.302;2023-02-28T01:51:02;9.13;;;6.60;;
33160;SDS011;19522;45.656;11.302;2023-02-28T01:53:35;12.45;;;7.53;;
33160;SDS011;19522;45.656;11.302;2023-02-28T01:56:06;8.67;;;6.87;;
33160;SDS011;19522;45.656;11.302;2023-02-28T01:58:35;9.30;;;6.40;;
33160;SDS011;19522;45.656;11.302;2023-02-28T02:01:02;11.25;;;6.60;;
33160;SDS011;19522;45.656;11.302;2023-02-28T02:03:28;8.82;;;6.45;;
33160;SDS011;19522;45.656;11.302;2023-02-28T02:05:55;9.48;;;7.13;;
33160;SDS011;19522;45.656;11.302;2023-02-28T02:08:22;9.32;;;6.30;;
33160;SDS011;19522;45.656;11.302;2023-02-28T02:10:51;8.05;;;5.82;;
33160;SDS011;19522;45.656;11.302;2023-02-28T02:15:49;7.82;;;5.70;;
33160;SDS011;19522;45.656;11.302;2023-02-28T02:21:10;9.68;;;6.40;;
33160;SDS011;19522;45.656;11.302;2023-02-28T02:35:20;10.25;;;6.47;;
33160;SDS011;19522;45.656;11.302;2023-02-28T02:38:31;9.02;;;6.03;;
33160;SDS011;19522;45.656;11.302;2023-02-28T02:41:19;8.40;;;5.50;;
33160;SDS011;19522;45.656;11.302;2023-02-28T02:43:56;7.60;;;5.43;;
33160;SDS011;19522;45.656;11.302;2023-02-28T02:46:34;9.25;;;6.00;;
33160;SDS011;19522;45.656;11.302;2023-02-28T02:49:06;8.27;;;5.72;;
33160;SDS011;19522;45.656;11.302;2023-02-28T02:51:35;7.32;;;5.55;;
33160;SDS011;19522;45.656;11.302;2023-02-28T02:54:10;8.60;;;5.88;;
33160;SDS011;19522;45.656;11.302;2023-02-28T02:56:41;6.88;;;5.35;;
33160;SDS011;19522;45.656;11.302;2023-02-28T02:59:11;7.90;;;5.88;;
33160;SDS011;19522;45.656;11.302;2023-02-28T03:01:45;8.00;;;6.00;;
33160;SDS011;19522;45.656;11.302;2023-02-28T03:04:17;9.13;;;6.45;;
33160;SDS011;19522;45.656;11.302;2023-02-28T03:06:46;8.65;;;6.13;;
33160;SDS011;19522;45.656;11.302;2023-02-28T03:09:12;7.90;;;6.25;;
33160;SDS011;19522;45.656;11.302;2023-02-28T03:11:37;7.80;;;5.68;;
33160;SDS011;19522;45.656;11.302;2023-02-28T03:17:17;7.55;;;5.53;;
33160;SDS011;19522;45.656;11.302;2023-02-28T03:25:06;7.13;;;5.28;;
33160;SDS011;19522;45.656;11.302;2023-02-28T03:33:51;7.38;;;5.50;;
33160;SDS011;19522;45.656;11.302;2023-02-28T03:35:55;8.23;;;5.93;;
33160;SDS011;19522;45.656;11.302;2023-02-28T03:40:51;7.68;;;5.68;;
33160;SDS011;19522;45.656;11.302;2023-02-28T03:43:27;8.57;;;5.80;;
33160;SDS011;19522;45.656;11.302;2023-02-28T03:45:57;7.68;;;5.53;;
33160;SDS011;19522;45.656;11.302;2023-02-28T03:48:32;7.90;;;5.68;;
33160;SDS011;19522;45.656;11.302;2023-02-28T03:51:04;7.40;;;6.00;;
33160;SDS011;19522;45.656;11.302;2023-02-28T03:53:36;8.48;;;5.45;;
33160;SDS011;19522;45.656;11.302;2023-02-28T03:59:06;8.73;;;7.15;;
33160;SDS011;19522;45.656;11.302;2023-02-28T04:01:43;10.77;;;6.47;;
33160;SDS011;19522;45.656;11.302;2023-02-28T04:04:10;8.98;;;6.45;;
33160;SDS011;19522;45.656;11.302;2023-02-28T04:06:37;12.27;;;6.85;;
33160;SDS011;19522;45.656;11.302;2023-02-28T04:09:05;9.13;;;6.20;;
33160;SDS011;19522;45.656;11.302;2023-02-28T04:11:33;8.43;;;5.78;;
33160;SDS011;19522;45.656;11.302;2023-02-28T04:14:01;8.10;;;5.72;;
33160;SDS011;19522;45.656;11.302;2023-02-28T04:16:28;8.63;;;5.72;;
33160;SDS011;19522;45.656;11.302;2023-02-28T04:18:54;8.35;;;6.20;;
33160;SDS011;19522;45.656;11.302;2023-02-28T04:21:28;8.50;;;5.85;;
33160;SDS011;19522;45.656;11.302;2023-02-28T04:23:55;9.52;;;6.68;;
33160;SDS011;19522;45.656;11.302;2023-02-28T04:26:21;11.73;;;6.90;;
33160;SDS011;19522;45.656;11.302;2023-02-28T04:28:46;9.50;;;6.90;;
33160;SDS011;19522;45.656;11.302;2023-02-28T04:31:12;8.43;;;6.57;;
33160;SDS011;19522;45.656;11.302;2023-02-28T04:33:37;8.02;;;5.93;;
33160;SDS011;19522;45.656;11.302;2023-02-28T04:36:04;9.88;;;6.13;;
33160;SDS011;19522;45.656;11.302;2023-02-28T04:38:32;7.75;;;5.13;;
33160;SDS011;19522;45.656;11.302;2023-02-28T04:41:00;8.43;;;6.38;;
33160;SDS011;19522;45.656;11.302;2023-02-28T04:43:26;9.25;;;6.68;;
33160;SDS011;19522;45.656;11.302;2023-02-28T04:45:53;10.55;;;7.38;;
33160;SDS011;19522;45.656;11.302;2023-02-28T04:48:24;13.10;;;7.55;;
33160;SDS011;19522;45.656;11.302;2023-02-28T04:50:51;9.20;;;7.32;;
33160;SDS011;19522;45.656;11.302;2023-02-28T04:53:17;8.20;;;5.97;;
33160;SDS011;19522;45.656;11.302;2023-02-28T04:55:43;9.48;;;6.05;;
33160;SDS011;19522;45.656;11.302;2023-02-28T04:58:09;10.35;;;6.10;;
33160;SDS011;19522;45.656;11.302;2023-02-28T05:00:35;7.05;;;5.30;;
33160;SDS011;19522;45.656;11.302;2023-02-28T05:03:00;7.15;;;5.53;;
33160;SDS011;19522;45.656;11.302;2023-02-28T05:05:26;9.38;;;6.28;;
33160;SDS011;19522;45.656;11.302;2023-02-28T05:07:52;7.68;;;5.97;;
33160;SDS011;19522;45.656;11.302;2023-02-28T05:10:18;9.70;;;6.10;;
33160;SDS011;19522;45.656;11.302;2023-02-28T05:12:44;9.02;;;6.28;;
33160;SDS011;19522;45.656;11.302;2023-02-28T05:15:12;8.55;;;6.10;;
33160;SDS011;19522;45.656;11.302;2023-02-28T05:17:39;8.60;;;5.95;;
33160;SDS011;19522;45.656;11.302;2023-02-28T05:20:04;8.85;;;6.53;;
33160;SDS011;19522;45.656;11.302;2023-02-28T05:22:31;9.25;;;6.90;;
33160;SDS011;19522;45.656;11.302;2023-02-28T05:24:57;9.43;;;6.85;;
33160;SDS011;19522;45.656;11.302;2023-02-28T05:27:22;10.18;;;6.60;;
33160;SDS011;19522;45.656;11.302;2023-02-28T05:29:48;10.57;;;7.32;;
33160;SDS011;19522;45.656;11.302;2023-02-28T05:32:13;9.02;;;6.68;;
33160;SDS011;19522;45.656;11.302;2023-02-28T05:34:39;9.25;;;6.72;;
33160;SDS011;19522;45.656;11.302;2023-02-28T05:37:06;9.07;;;6.30;;
33160;SDS011;19522;45.656;11.302;2023-02-28T05:39:36;10.93;;;7.55;;
33160;SDS011;19522;45.656;11.302;2023-02-28T05:42:01;10.00;;;7.07;;
33160;SDS011;19522;45.656;11.302;2023-02-28T05:44:27;9.02;;;6.65;;
33160;SDS011;19522;45.656;11.302;2023-02-28T05:46:52;9.90;;;7.60;;
33160;SDS011;19522;45.656;11.302;2023-02-28T05:49:18;9.98;;;7.05;;
33160;SDS011;19522;45.656;11.302;2023-02-28T05:51:43;11.23;;;7.30;;
33160;SDS011;19522;45.656;11.302;2023-02-28T05:54:09;9.93;;;6.97;;
33160;SDS011;19522;45.656;11.302;2023-02-28T05:56:34;8.57;;;6.32;;
33160;SDS011;19522;45.656;11.302;2023-02-28T05:59:00;11.50;;;7.75;;
33160;SDS011;19522;45.656;11.302;2023-02-28T06:01:36;10.73;;;7.45;;
33160;SDS011;19522;45.656;11.302;2023-02-28T06:04:03;12.25;;;7.03;;
33160;SDS011;19522;45.656;11.302;2023-02-28T06:06:31;10.48;;;7.53;;
33160;SDS011;19522;45.656;11.302;2023-02-28T06:08:59;9.63;;;7.68;;
33160;SDS011;19522;45.656;11.302;2023-02-28T06:11:25;12.40;;;7.75;;
33160;SDS011;19522;45.656;11.302;2023-02-28T06:13:58;12.75;;;8.70;;
33160;SDS011;19522;45.656;11.302;2023-02-28T06:16:26;11.93;;;8.85;;
33160;SDS011;19522;45.656;11.302;2023-02-28T06:18:52;16.05;;;8.68;;
33160;SDS011;19522;45.656;11.302;2023-02-28T06:21:20;12.75;;;8.90;;
33160;SDS011;19522;45.656;11.302;2023-02-28T06:23:46;13.63;;;8.73;;
33160;SDS011;19522;45.656;11.302;2023-02-28T06:26:11;12.98;;;9.45;;
33160;SDS011;19522;45.656;11.302;2023-02-28T06:28:37;13.70;;;9.50;;
33160;SDS011;19522;45.656;11.302;2023-02-28T06:31:09;14.25;;;9.40;;
33160;SDS011;19522;45.656;11.302;2023-02-28T06:33:37;17.27;;;9.63;;
33160;SDS011;19522;45.656;11.302;2023-02-28T06:36:04;12.23;;;9.23;;
33160;SDS011;19522;45.656;11.302;2023-02-28T06:38:30;29.73;;;16.38;;
33160;SDS011;19522;45.656;11.302;2023-02-28T06:40:56;76.00;;;38.85;;
33160;SDS011;19522;45.656;11.302;2023-02-28T06:43:23;20.85;;;13.27;;
33160;SDS011;19522;45.656;11.302;2023-02-28T06:45:49;15.95;;;10.80;;
33160;SDS011;19522;45.656;11.302;2023-02-28T06:48:16;14.45;;;10.10;;
33160;SDS011;19522;45.656;11.302;2023-02-28T06:50:42;15.50;;;10.73;;
33160;SDS011;19522;45.656;11.302;2023-02-28T06:53:08;15.77;;;10.82;;
33160;SDS011;19522;45.656;11.302;2023-02-28T06:55:33;14.20;;;10.55;;
33160;SDS011;19522;45.656;11.302;2023-02-28T06:57:59;13.15;;;10.23;;
33160;SDS011;19522;45.656;11.302;2023-02-28T07:00:24;14.55;;;10.00;;
33160;SDS011;19522;45.656;11.302;2023-02-28T07:02:50;16.33;;;10.55;;
33160;SDS011;19522;45.656;11.302;2023-02-28T07:05:16;16.88;;;10.50;;
33160;SDS011;19522;45.656;11.302;2023-02-28T07:07:41;14.50;;;10.07;;
33160;SDS011;19522;45.656;11.302;2023-02-28T07:10:12;15.82;;;9.18;;
33160;SDS011;19522;45.656;11.302;2023-02-28T07:12:42;13.70;;;9.75;;
33160;SDS011;19522;45.656;11.302;2023-02-28T07:15:10;14.25;;;9.50;;
33160;SDS011;19522;45.656;11.302;2023-02-28T07:17:36;13.82;;;9.52;;
33160;SDS011;19522;45.656;11.302;2023-02-28T07:20:01;30.27;;;18.15;;
33160;SDS011;19522;45.656;11.302;2023-02-28T07:22:29;37.47;;;22.90;;
33160;SDS011;19522;45.656;11.302;2023-02-28T07:24:55;40.25;;;24.80;;
33160;SDS011;19522;45.656;11.302;2023-02-28T07:27:20;25.13;;;17.05;;
33160;SDS011;19522;45.656;11.302;2023-02-28T07:29:50;22.95;;;16.73;;
33160;SDS011;19522;45.656;11.302;2023-02-28T07:32:17;22.10;;;15.07;;
33160;SDS011;19522;45.656;11.302;2023-02-28T07:34:43;20.23;;;12.98;;
33160;SDS011;19522;45.656;11.302;2023-02-28T07:37:09;18.88;;;12.95;;
33160;SDS011;19522;45.656;11.302;2023-02-28T07:39:34;17.25;;;12.63;;
33160;SDS011;19522;45.656;11.302;2023-02-28T07:42:00;15.10;;;11.07;;
33160;SDS011;19522;45.656;11.302;2023-02-28T07:44:28;18.05;;;12.85;;
33160;SDS011;19522;45.656;11.302;2023-02-28T07:46:54;18.35;;;11.30;;
33160;SDS011;19522;45.656;11.302;2023-02-28T07:49:20;15.05;;;10.68;;
33160;SDS011;19522;45.656;11.302;2023-02-28T07:51:45;16.58;;;11.50;;
33160;SDS011;19522;45.656;11.302;2023-02-28T07:54:10;12.52;;;9.88;;
33160;SDS011;19522;45.656;11.302;2023-02-28T07:56:36;11.27;;;8.23;;
33160;SDS011;19522;45.656;11.302;2023-02-28T07:59:01;12.20;;;8.70;;
33160;SDS011;19522;45.656;11.302;2023-02-28T08:01:27;12.57;;;10.10;;
33160;SDS011;19522;45.656;11.302;2023-02-28T08:03:53;10.45;;;8.43;;
33160;SDS011;19522;45.656;11.302;2023-02-28T08:06:20;11.98;;;8.68;;
33160;SDS011;19522;45.656;11.302;2023-02-28T08:08:47;12.95;;;8.80;;
33160;SDS011;19522;45.656;11.302;2023-02-28T08:11:32;10.85;;;7.68;;
33160;SDS011;19522;45.656;11.302;2023-02-28T08:13:57;13.80;;;8.93;;
33160;SDS011;19522;45.656;11.302;2023-02-28T08:16:23;10.77;;;7.60;;
33160;SDS011;19522;45.656;11.302;2023-02-28T08:18:49;12.43;;;7.45;;
33160;SDS011;19522;45.656;11.302;2023-02-28T08:21:15;10.30;;;6.60;;
33160;SDS011;19522;45.656;11.302;2023-02-28T08:23:41;10.93;;;6.88;;
33160;SDS011;19522;45.656;11.302;2023-02-28T08:26:06;9.75;;;6.85;;
33160;SDS011;19522;45.656;11.302;2023-02-28T08:28:32;11.13;;;7.40;;
33160;SDS011;19522;45.656;11.302;2023-02-28T08:30:58;9.15;;;6.22;;
33160;SDS011;19522;45.656;11.302;2023-02-28T08:33:24;10.95;;;6.68;;
33160;SDS011;19522;45.656;11.302;2023-02-28T08:35:53;9.05;;;6.57;;
33160;SDS011;19522;45.656;11.302;2023-02-28T08:38:20;16.52;;;7.70;;
33160;SDS011;19522;45.656;11.302;2023-02-28T08:40:46;7.80;;;6.50;;
33160;SDS011;19522;45.656;11.302;2023-02-28T08:43:11;9.05;;;6.32;;
33160;SDS011;19522;45.656;11.302;2023-02-28T08:45:36;9.20;;;6.65;;
33160;SDS011;19522;45.656;11.302;2023-02-28T08:48:02;8.98;;;6.35;;
33160;SDS011;19522;45.656;11.302;2023-02-28T08:50:28;8.85;;;6.20;;
33160;SDS011;19522;45.656;11.302;2023-02-28T08:52:53;9.65;;;7.00;;
33160;SDS011;19522;45.656;11.302;2023-02-28T08:55:19;7.80;;;6.25;;
33160;SDS011;19522;45.656;11.302;2023-02-28T08:57:44;7.43;;;6.00;;
33160;SDS011;19522;45.656;11.302;2023-02-28T09:00:10;7.95;;;6.20;;
33160;SDS011;19522;45.656;11.302;2023-02-28T09:02:38;11.70;;;7.07;;
33160;SDS011;19522;45.656;11.302;2023-02-28T09:05:04;8.02;;;5.93;;
33160;SDS011;19522;45.656;11.302;2023-02-28T09:07:30;8.65;;;6.25;;
33160;SDS011;19522;45.656;11.302;2023-02-28T09:09:55;8.63;;;5.80;;
33160;SDS011;19522;45.656;11.302;2023-02-28T09:12:24;9.55;;;6.60;;
33160;SDS011;19522;45.656;11.302;2023-02-28T09:14:51;7.50;;;5.85;;
33160;SDS011;19522;45.656;11.302;2023-02-28T09:17:17;7.22;;;5.28;;
33160;SDS011;19522;45.656;11.302;2023-02-28T09:19:43;8.13;;;5.88;;
33160;SDS011;19522;45.656;11.302;2023-02-28T09:22:09;8.73;;;6.40;;
33160;SDS011;19522;45.656;11.302;2023-02-28T09:24:36;7.53;;;5.60;;
33160;SDS011;19522;45.656;11.302;2023-02-28T09:27:03;7.35;;;5.10;;
33160;SDS011;19522;45.656;11.302;2023-02-28T09:29:29;7.20;;;5.40;;
33160;SDS011;19522;45.656;11.302;2023-02-28T09:31:55;8.13;;;5.13;;
33160;SDS011;19522;45.656;11.302;2023-02-28T09:34:23;7.03;;;5.32;;
33160;SDS011;19522;45.656;11.302;2023-02-28T09:36:49;9.98;;;5.78;;
33160;SDS011;19522;45.656;11.302;2023-02-28T09:39:19;7.95;;;5.38;;
33160;SDS011;19522;45.656;11.302;2023-02-28T09:41:47;8.30;;;5.43;;
33160;SDS011;19522;45.656;11.302;2023-02-28T09:44:18;9.00;;;6.00;;
33160;SDS011;19522;45.656;11.302;2023-02-28T09:46:45;9.88;;;6.60;;
33160;SDS011;19522;45.656;11.302;2023-02-28T09:49:14;9.43;;;5.50;;
33160;SDS011;19522;45.656;11.302;2023-02-28T09:54:28;10.02;;;6.70;;
33160;SDS011;19522;45.656;11.302;2023-02-28T09:59:31;9.65;;;7.05;;
33160;SDS011;19522;45.656;11.302;2023-02-28T10:02:17;8.98;;;6.22;;
33160;SDS011;19522;45.656;11.302;2023-02-28T10:10:31;10.05;;;6.47;;
33160;SDS011;19522;45.656;11.302;2023-02-28T10:13:02;8.73;;;6.10;;
33160;SDS011;19522;45.656;11.302;2023-02-28T10:15:32;7.93;;;6.57;;
33160;SDS011;19522;45.656;11.302;2023-02-28T10:18:04;8.05;;;6.20;;
33160;SDS011;19522;45.656;11.302;2023-02-28T10:20:35;9.30;;;6.43;;
33160;SDS011;19522;45.656;11.302;2023-02-28T10:25:52;8.75;;;6.72;;
33160;SDS011;19522;45.656;11.302;2023-02-28T10:28:22;10.70;;;7.22;;
33160;SDS011;19522;45.656;11.302;2023-02-28T10:30:51;10.10;;;7.22;;
33160;SDS011;19522;45.656;11.302;2023-02-28T10:35:51;14.93;;;7.57;;
33160;SDS011;19522;45.656;11.302;2023-02-28T10:38:23;11.00;;;8.20;;
33160;SDS011;19522;45.656;11.302;2023-02-28T10:41:03;10.88;;;7.15;;
33160;SDS011;19522;45.656;11.302;2023-02-28T10:43:33;9.65;;;7.07;;
33160;SDS011;19522;45.656;11.302;2023-02-28T10:51:02;11.43;;;7.80;;
33160;SDS011;19522;45.656;11.302;2023-02-28T10:53:34;10.73;;;8.07;;
33160;SDS011;19522;45.656;11.302;2023-02-28T11:01:37;10.43;;;7.95;;
33160;SDS011;19522;45.656;11.302;2023-02-28T11:04:17;10.95;;;7.45;;
33160;SDS011;19522;45.656;11.302;2023-02-28T11:09:39;11.65;;;8.20;;
33160;SDS011;19522;45.656;11.302;2023-02-28T11:12:19;12.63;;;8.48;;
33160;SDS011;19522;45.656;11.302;2023-02-28T11:14:49;12.25;;;8.18;;
33160;SDS011;19522;45.656;11.302;2023-02-28T11:17:21;11.18;;;8.20;;
33160;SDS011;19522;45.656;11.302;2023-02-28T11:19:50;11.90;;;8.38;;
33160;SDS011;19522;45.656;11.302;2023-02-28T11:22:19;12.40;;;8.40;;
33160;SDS011;19522;45.656;11.302;2023-02-28T11:24:49;10.85;;;8.15;;
33160;SDS011;19522;45.656;11.302;2023-02-28T11:29:57;11.25;;;8.63;;
33160;SDS011;19522;45.656;11.302;2023-02-28T11:32:24;18.23;;;10.23;;
33160;SDS011;19522;45.656;11.302;2023-02-28T11:37:41;12.73;;;8.82;;
33160;SDS011;19522;45.656;11.302;2023-02-28T11:40:17;12.02;;;8.85;;
33160;SDS011;19522;45.656;11.302;2023-02-28T11:51:33;15.95;;;10.93;;
33160;SDS011;19522;45.656;11.302;2023-02-28T11:54:12;13.75;;;9.05;;
33160;SDS011;19522;45.656;11.302;2023-02-28T12:03:08;12.30;;;9.23;;
33160;SDS011;19522;45.656;11.302;2023-02-28T12:09:02;13.88;;;8.85;;
33160;SDS011;19522;45.656;11.302;2023-02-28T12:12:03;6.57;;;5.63;;
33160;SDS011;19522;45.656;11.302;2023-02-28T12:23:09;14.35;;;8.90;;
33160;SDS011;19522;45.656;11.302;2023-02-28T12:28:33;12.15;;;8.63;;
33160;SDS011;19522;45.656;11.302;2023-02-28T12:33:50;12.80;;;8.45;;
33160;SDS011;19522;45.656;11.302;2023-02-28T12:36:21;11.27;;;8.05;;
33160;SDS011;19522;45.656;11.302;2023-02-28T12:42:05;15.00;;;9.50;;
33160;SDS011;19522;45.656;11.302;2023-02-28T12:45:24;12.43;;;8.93;;
33160;SDS011;19522;45.656;11.302;2023-02-28T12:47:36;11.75;;;8.77;;
33160;SDS011;19522;45.656;11.302;2023-02-28T12:50:09;14.50;;;8.73;;
33160;SDS011;19522;45.656;11.302;2023-02-28T13:00:59;11.55;;;8.32;;
33160;SDS011;19522;45.656;11.302;2023-02-28T13:06:45;12.55;;;9.02;;
33160;SDS011;19522;45.656;11.302;2023-02-28T13:09:36;11.70;;;9.40;;
33160;SDS011;19522;45.656;11.302;2023-02-28T13:12:12;12.90;;;9.25;;
33160;SDS011;19522;45.656;11.302;2023-02-28T13:14:42;18.00;;;11.63;;
33160;SDS011;19522;45.656;11.302;2023-02-28T13:20:13;13.07;;;8.98;;
33160;SDS011;19522;45.656;11.302;2023-02-28T13:25:00;14.45;;;9.52;;
33160;SDS011;19522;45.656;11.302;2023-02-28T13:27:36;10.85;;;8.70;;
33160;SDS011;19522;45.656;11.302;2023-02-28T13:30:59;11.73;;;8.98;;
33160;SDS011;19522;45.656;11.302;2023-02-28T13:44:14;14.10;;;10.07;;
33160;SDS011;19522;45.656;11.302;2023-02-28T13:51:51;13.43;;;9.63;;
33160;SDS011;19522;45.656;11.302;2023-02-28T14:06:25;12.75;;;9.43;;
33160;SDS011;19522;45.656;11.302;2023-02-28T14:11:42;15.23;;;9.63;;
33160;SDS011;19522;45.656;11.302;2023-02-28T14:14:09;13.45;;;9.85;;
33160;SDS011;19522;45.656;11.302;2023-02-28T14:17:01;13.73;;;9.80;;
33160;SDS011;19522;45.656;11.302;2023-02-28T14:19:29;13.35;;;10.05;;
33160;SDS011;19522;45.656;11.302;2023-02-28T14:27:54;12.75;;;10.18;;
33160;SDS011;19522;45.656;11.302;2023-02-28T14:33:23;16.90;;;11.48;;
33160;SDS011;19522;45.656;11.302;2023-02-28T14:38:43;16.65;;;9.57;;
33160;SDS011;19522;45.656;11.302;2023-02-28T14:41:14;13.43;;;9.93;;
33160;SDS011;19522;45.656;11.302;2023-02-28T14:43:50;17.88;;;11.40;;
33160;SDS011;19522;45.656;11.302;2023-02-28T14:46:25;16.08;;;11.18;;
33160;SDS011;19522;45.656;11.302;2023-02-28T14:49:03;14.68;;;10.43;;
33160;SDS011;19522;45.656;11.302;2023-02-28T14:51:31;15.18;;;9.82;;
33160;SDS011;19522;45.656;11.302;2023-02-28T14:53:59;18.45;;;11.05;;
33160;SDS011;19522;45.656;11.302;2023-02-28T14:56:36;14.90;;;11.02;;
33160;SDS011;19522;45.656;11.302;2023-02-28T14:59:03;14.82;;;10.38;;
33160;SDS011;19522;45.656;11.302;2023-02-28T15:01:30;15.35;;;10.60;;
33160;SDS011;19522;45.656;11.302;2023-02-28T15:04:00;16.65;;;10.82;;
33160;SDS011;19522;45.656;11.302;2023-02-28T15:06:31;13.35;;;10.18;;
33160;SDS011;19522;45.656;11.302;2023-02-28T15:09:07;16.33;;;10.27;;
33160;SDS011;19522;45.656;11.302;2023-02-28T15:11:34;14.75;;;10.60;;
33160;SDS011;19522;45.656;11.302;2023-02-28T15:14:01;14.10;;;10.55;;
33160;SDS011;19522;45.656;11.302;2023-02-28T15:16:29;15.73;;;10.52;;
33160;SDS011;19522;45.656;11.302;2023-02-28T15:19:04;13.77;;;10.23;;
33160;SDS011;19522;45.656;11.302;2023-02-28T15:21:36;16.15;;;10.50;;
33160;SDS011;19522;45.656;11.302;2023-02-28T15:26:54;15.57;;;10.98;;
33160;SDS011;19522;45.656;11.302;2023-02-28T15:29:23;17.63;;;10.88;;
33160;SDS011;19522;45.656;11.302;2023-02-28T15:32:02;15.90;;;10.48;;
33160;SDS011;19522;45.656;11.302;2023-02-28T15:37:00;15.20;;;10.32;;
33160;SDS011;19522;45.656;11.302;2023-02-28T15:39:27;15.35;;;10.38;;
33160;SDS011;19522;45.656;11.302;2023-02-28T15:42:10;17.17;;;10.95;;
33160;SDS011;19522;45.656;11.302;2023-02-28T15:44:37;15.25;;;10.43;;
33160;SDS011;19522;45.656;11.302;2023-02-28T15:49:52;16.30;;;10.73;;
33160;SDS011;19522;45.656;11.302;2023-02-28T15:52:26;15.73;;;10.85;;
33160;SDS011;19522;45.656;11.302;2023-02-28T15:54:56;15.70;;;10.45;;
33160;SDS011;19522;45.656;11.302;2023-02-28T15:57:24;17.70;;;12.65;;
33160;SDS011;19522;45.656;11.302;2023-02-28T15:59:54;22.30;;;16.40;;
33160;SDS011;19522;45.656;11.302;2023-02-28T16:02:34;21.83;;;12.93;;
33160;SDS011;19522;45.656;11.302;2023-02-28T16:07:36;13.98;;;9.90;;
33160;SDS011;19522;45.656;11.302;2023-02-28T16:10:04;17.08;;;11.40;;
33160;SDS011;19522;45.656;11.302;2023-02-28T16:12:31;16.85;;;10.25;;
33160;SDS011;19522;45.656;11.302;2023-02-28T16:14:59;15.45;;;10.23;;
33160;SDS011;19522;45.656;11.302;2023-02-28T16:17:32;14.82;;;10.45;;
33160;SDS011;19522;45.656;11.302;2023-02-28T16:20:00;16.23;;;10.25;;
33160;SDS011;19522;45.656;11.302;2023-02-28T16:22:25;16.35;;;10.45;;
33160;SDS011;19522;45.656;11.302;2023-02-28T16:24:51;15.55;;;10.82;;
33160;SDS011;19522;45.656;11.302;2023-02-28T16:27:38;15.35;;;10.80;;
33160;SDS011;19522;45.656;11.302;2023-02-28T16:30:03;14.07;;;9.20;;
33160;SDS011;19522;45.656;11.302;2023-02-28T16:32:31;16.75;;;9.32;;
33160;SDS011;19522;45.656;11.302;2023-02-28T16:35:00;16.50;;;10.10;;
33160;SDS011;19522;45.656;11.302;2023-02-28T16:37:26;16.50;;;10.68;;
33160;SDS011;19522;45.656;11.302;2023-02-28T16:39:52;16.38;;;9.82;;
33160;SDS011;19522;45.656;11.302;2023-02-28T16:42:25;14.15;;;10.02;;
33160;SDS011;19522;45.656;11.302;2023-02-28T16:44:53;17.13;;;11.18;;
33160;SDS011;19522;45.656;11.302;2023-02-28T16:47:19;19.08;;;11.43;;
33160;SDS011;19522;45.656;11.302;2023-02-28T16:49:45;14.90;;;10.77;;
33160;SDS011;19522;45.656;11.302;2023-02-28T16:52:13;19.95;;;11.73;;
33160;SDS011;19522;45.656;11.302;2023-02-28T16:54:39;15.95;;;10.77;;
33160;SDS011;19522;45.656;11.302;2023-02-28T16:57:06;17.77;;;11.00;;
33160;SDS011;19522;45.656;11.302;2023-02-28T16:59:48;20.52;;;11.63;;
33160;SDS011;19522;45.656;11.302;2023-02-28T17:02:18;20.33;;;13.77;;
33160;SDS011;19522;45.656;11.302;2023-02-28T17:04:46;20.25;;;13.43;;
33160;SDS011;19522;45.656;11.302;2023-02-28T17:07:13;20.58;;;13.65;;
33160;SDS011;19522;45.656;11.302;2023-02-28T17:09:41;18.35;;;12.65;;
33160;SDS011;19522;45.656;11.302;2023-02-28T17:12:06;26.90;;;16.52;;
33160;SDS011;19522;45.656;11.302;2023-02-28T17:14:33;20.83;;;15.23;;
33160;SDS011;19522;45.656;11.302;2023-02-28T17:16:58;26.33;;;17.65;;
33160;SDS011;19522;45.656;11.302;2023-02-28T17:19:24;47.10;;;18.58;;
33160;SDS011;19522;45.656;11.302;2023-02-28T17:21:49;35.90;;;21.58;;
33160;SDS011;19522;45.656;11.302;2023-02-28T17:24:15;29.65;;;18.98;;
33160;SDS011;19522;45.656;11.302;2023-02-28T17:26:40;30.02;;;18.08;;
33160;SDS011;19522;45.656;11.302;2023-02-28T17:29:13;24.60;;;16.30;;
33160;SDS011;19522;45.656;11.302;2023-02-28T17:31:41;22.58;;;15.13;;